Time;durP1;ratioP1;P1;durP2;ratioP2;P2;SDS_P1;SDS_P2;PMS_P1;PMS_P2;Temp;Humidity;BMP_temperature;BMP_pressure;BME280_temperature;BME280_humidity;BME280_pressure;Samples;Min_cycle;Max_cycle;Signal;HPM_P1;HPM_P2
2023/06/30 00:01:48;;;;;;;16.08;6.70;;;14.00;99.90;;;;;;5120904;28;20042;-66
2023/06/30 00:04:22;;;;;;;8.27;6.05;;;14.00;99.90;;;;;;5121157;28;20031;-66
2023/06/30 00:06:51;;;;;;;10.18;6.38;;;14.00;99.90;;;;;;5121068;28;20114;-66
2023/06/30 00:09:20;;;;;;;7.85;6.00;;;14.00;99.90;;;;;;5121177;28;20035;-65
2023/06/30 00:11:50;;;;;;;9.93;6.35;;;13.90;99.90;;;;;;5121132;28;20042;-66
2023/06/30 00:14:16;;;;;;;9.55;6.55;;;13.90;99.90;;;;;;5120851;28;20031;-66
2023/06/30 00:16:41;;;;;;;8.07;5.93;;;13.90;99.90;;;;;;5127819;27;20039;-66
2023/06/30 00:19:08;;;;;;;8.85;6.40;;;13.90;99.90;;;;;;5141798;27;20026;-66
2023/06/30 00:21:34;;;;;;;10.73;6.10;;;13.80;99.90;;;;;;5141852;27;20031;-66
2023/06/30 00:24:04;;;;;;;7.90;6.40;;;13.90;99.90;;;;;;5139274;27;20460;-66
2023/06/30 00:26:30;;;;;;;9.60;6.78;;;13.80;99.90;;;;;;5138408;27;20051;-66
2023/06/30 00:28:57;;;;;;;7.18;5.80;;;13.80;99.90;;;;;;5138395;27;20027;-66
2023/06/30 00:31:23;;;;;;;11.93;6.45;;;13.80;99.90;;;;;;5138200;27;20035;-65
2023/06/30 00:33:49;;;;;;;7.53;5.78;;;13.70;99.90;;;;;;5119855;27;20065;-66
2023/06/30 00:36:15;;;;;;;8.93;5.97;;;13.70;99.90;;;;;;5138203;27;20039;-66
2023/06/30 00:38:41;;;;;;;8.57;6.10;;;13.70;99.90;;;;;;5119778;27;20038;-66
2023/06/30 00:41:07;;;;;;;14.95;6.97;;;13.70;99.90;;;;;;5138073;27;20039;-65
2023/06/30 00:43:33;;;;;;;8.68;6.18;;;13.60;99.90;;;;;;5138241;27;20027;-66
2023/06/30 00:45:59;;;;;;;10.32;5.75;;;13.60;99.90;;;;;;5124252;27;20460;-66
2023/06/30 00:48:26;;;;;;;8.73;6.15;;;13.60;99.90;;;;;;5117443;28;20357;-66
2023/06/30 00:50:52;;;;;;;9.13;6.57;;;13.60;99.90;;;;;;5098880;28;20030;-66
2023/06/30 00:53:19;;;;;;;13.13;6.95;;;13.50;99.90;;;;;;5099237;28;20030;-65
2023/06/30 00:55:45;;;;;;;8.20;6.63;;;13.50;99.90;;;;;;5117459;28;20441;-66
2023/06/30 00:58:11;;;;;;;10.00;7.18;;;13.50;99.90;;;;;;5117292;28;20031;-65
2023/06/30 01:00:37;;;;;;;9.32;6.68;;;13.50;99.90;;;;;;5098877;28;20035;-65
2023/06/30 01:03:19;;;;;;;7.95;6.57;;;13.50;99.90;;;;;;5098722;28;20035;-65
2023/06/30 01:06:12;;;;;;;9.88;6.25;;;13.50;99.90;;;;;;5098788;28;20098;-66
2023/06/30 01:08:48;;;;;;;8.48;6.15;;;13.40;99.90;;;;;;5117113;28;20035;-65
2023/06/30 01:11:16;;;;;;;9.77;6.45;;;13.40;99.90;;;;;;5116758;28;20111;-66
2023/06/30 01:13:43;;;;;;;11.60;7.10;;;13.40;99.90;;;;;;5116892;28;20034;-65
2023/06/30 01:16:12;;;;;;;12.25;6.45;;;13.40;99.90;;;;;;5114539;28;20110;-65
2023/06/30 01:18:41;;;;;;;11.30;6.82;;;13.40;99.90;;;;;;5078241;28;20032;-65
2023/06/30 01:21:13;;;;;;;9.52;6.40;;;13.40;99.90;;;;;;5096685;28;20094;-65
2023/06/30 01:23:47;;;;;;;10.20;6.00;;;13.30;99.90;;;;;;5096355;28;20059;-65
2023/06/30 01:26:13;;;;;;;9.60;6.50;;;13.30;99.90;;;;;;5096426;28;20416;-65
2023/06/30 01:28:40;;;;;;;9.95;6.70;;;13.20;99.90;;;;;;5096287;28;20508;-66
2023/06/30 01:31:09;;;;;;;6.97;6.20;;;13.20;99.90;;;;;;5077790;28;20028;-65
2023/06/30 01:33:36;;;;;;;14.48;6.85;;;13.20;99.90;;;;;;5096117;28;20028;-65
2023/06/30 01:36:06;;;;;;;12.00;6.80;;;13.20;99.90;;;;;;5094937;28;20059;-65
2023/06/30 01:38:32;;;;;;;7.63;6.22;;;13.20;99.90;;;;;;5096127;28;20129;-65
2023/06/30 01:41:00;;;;;;;10.75;6.35;;;13.20;99.90;;;;;;5077909;28;20028;-65
2023/06/30 01:43:28;;;;;;;10.65;6.57;;;13.20;99.90;;;;;;5078010;28;20032;-65
2023/06/30 01:45:55;;;;;;;10.70;6.55;;;13.20;99.90;;;;;;5121585;27;20038;-65
2023/06/30 01:48:22;;;;;;;8.38;6.55;;;13.20;99.90;;;;;;5136870;27;20030;-65
2023/06/30 01:50:49;;;;;;;11.52;7.07;;;13.10;99.90;;;;;;5136793;27;20380;-65
2023/06/30 01:53:15;;;;;;;8.05;6.55;;;13.10;99.90;;;;;;5136623;27;20358;-65
2023/06/30 01:55:47;;;;;;;7.38;6.20;;;13.10;99.90;;;;;;5136999;27;20084;-65
2023/06/30 01:58:14;;;;;;;9.25;6.57;;;13.10;99.90;;;;;;5136919;27;20023;-65
2023/06/30 02:00:39;;;;;;;7.60;6.70;;;13.10;99.90;;;;;;5118128;27;20035;-65
2023/06/30 02:03:05;;;;;;;10.07;7.43;;;13.10;99.90;;;;;;5136556;27;20033;-65
2023/06/30 02:05:31;;;;;;;9.55;6.80;;;13.00;99.90;;;;;;5136564;27;20044;-65
2023/06/30 02:07:57;;;;;;;13.32;6.60;;;13.00;99.90;;;;;;5136421;27;20027;-65
2023/06/30 02:10:25;;;;;;;7.95;6.53;;;13.00;99.90;;;;;;5117693;27;20432;-66
2023/06/30 02:12:51;;;;;;;10.85;7.00;;;13.00;99.90;;;;;;5117877;27;20083;-65
2023/06/30 02:15:17;;;;;;;8.52;6.25;;;13.00;99.90;;;;;;5136296;27;20027;-65
2023/06/30 02:17:43;;;;;;;11.20;7.03;;;13.00;99.90;;;;;;5133100;27;20047;-66
2023/06/30 02:20:10;;;;;;;11.60;7.78;;;13.00;99.90;;;;;;5157057;27;20042;-66
2023/06/30 02:22:38;;;;;;;12.40;7.47;;;13.00;99.90;;;;;;5156924;27;20037;-65
2023/06/30 02:25:04;;;;;;;10.65;7.40;;;13.00;99.90;;;;;;5156823;27;20030;-66
2023/06/30 02:27:30;;;;;;;12.80;6.95;;;13.00;99.90;;;;;;5156816;27;20038;-65
2023/06/30 02:29:56;;;;;;;10.38;7.45;;;12.90;99.90;;;;;;5156803;27;20469;-65
2023/06/30 02:32:23;;;;;;;12.15;7.50;;;12.90;99.90;;;;;;5156708;27;20021;-65
2023/06/30 02:34:48;;;;;;;10.55;7.18;;;12.90;99.90;;;;;;5156806;27;20407;-65
2023/06/30 02:37:14;;;;;;;10.32;7.35;;;12.90;99.90;;;;;;5138064;27;20023;-65
2023/06/30 02:39:41;;;;;;;12.48;7.97;;;12.80;99.90;;;;;;5138264;27;20031;-65
2023/06/30 02:42:07;;;;;;;11.88;7.97;;;12.80;99.90;;;;;;5156487;27;20490;-65
2023/06/30 02:44:33;;;;;;;13.77;7.40;;;12.80;99.90;;;;;;5156440;27;20026;-65
2023/06/30 02:46:59;;;;;;;14.13;7.85;;;12.80;99.90;;;;;;5137578;27;20122;-65
2023/06/30 02:49:24;;;;;;;11.93;7.70;;;12.70;99.90;;;;;;5137804;27;20027;-66
2023/06/30 02:51:50;;;;;;;10.07;7.53;;;12.70;99.90;;;;;;5137773;27;20027;-66
2023/06/30 02:54:16;;;;;;;10.43;7.90;;;12.70;99.90;;;;;;5137948;27;20023;-66
2023/06/30 02:56:42;;;;;;;10.07;7.25;;;12.70;99.90;;;;;;5137748;27;20023;-66
2023/06/30 02:59:08;;;;;;;11.77;7.70;;;12.70;99.90;;;;;;5137887;27;20026;-66
2023/06/30 03:01:34;;;;;;;13.20;8.10;;;12.70;99.90;;;;;;5156282;27;20118;-66
2023/06/30 03:04:01;;;;;;;14.20;8.45;;;12.70;99.90;;;;;;5137751;27;20121;-66
2023/06/30 03:06:30;;;;;;;11.95;8.20;;;12.70;99.90;;;;;;5137760;27;20134;-65
2023/06/30 03:08:56;;;;;;;12.73;8.13;;;12.70;99.90;;;;;;5137764;27;20114;-66
2023/06/30 03:11:26;;;;;;;15.70;8.38;;;12.70;99.90;;;;;;5137552;27;20031;-66
2023/06/30 03:13:53;;;;;;;10.40;7.72;;;12.60;99.90;;;;;;5137453;27;20034;-66
2023/06/30 03:16:19;;;;;;;9.80;6.95;;;12.60;99.90;;;;;;5137476;27;20043;-66
2023/06/30 03:18:46;;;;;;;10.32;8.07;;;12.60;99.90;;;;;;5137572;27;20019;-66
2023/06/30 03:21:12;;;;;;;11.27;7.75;;;12.60;99.90;;;;;;5156149;27;20365;-66
2023/06/30 03:23:40;;;;;;;11.57;7.70;;;12.60;99.90;;;;;;5137555;27;20221;-66
2023/06/30 03:26:06;;;;;;;14.27;8.77;;;12.50;99.90;;;;;;5137392;27;20027;-66
2023/06/30 03:28:32;;;;;;;14.35;9.23;;;12.50;99.90;;;;;;5137463;27;20030;-66
2023/06/30 03:30:58;;;;;;;14.10;9.27;;;12.50;99.90;;;;;;5156070;27;20027;-66
2023/06/30 03:33:23;;;;;;;11.98;7.68;;;12.60;99.90;;;;;;5137355;27;20071;-66
2023/06/30 03:35:51;;;;;;;10.25;8.60;;;12.60;99.90;;;;;;5137460;27;20056;-66
2023/06/30 03:38:17;;;;;;;13.32;8.82;;;12.60;99.90;;;;;;5155882;27;20042;-66
2023/06/30 03:40:43;;;;;;;13.43;8.68;;;12.50;99.90;;;;;;5156140;27;20087;-66
2023/06/30 03:43:10;;;;;;;11.45;8.50;;;12.60;99.90;;;;;;5156038;27;20022;-66
2023/06/30 03:45:38;;;;;;;12.45;9.20;;;12.60;99.90;;;;;;5137155;27;20026;-65
2023/06/30 03:48:04;;;;;;;12.35;8.88;;;12.60;99.90;;;;;;5155837;27;20075;-66
2023/06/30 03:50:30;;;;;;;10.05;8.88;;;12.70;99.90;;;;;;5137226;27;20123;-66
2023/06/30 03:52:58;;;;;;;13.55;8.48;;;12.70;99.90;;;;;;5137187;27;20033;-66
2023/06/30 03:55:24;;;;;;;9.68;8.48;;;12.70;99.90;;;;;;5155817;27;20023;-65
2023/06/30 03:57:49;;;;;;;13.38;9.23;;;12.80;99.90;;;;;;5155684;27;20018;-66
2023/06/30 04:00:16;;;;;;;12.73;10.15;;;12.90;99.90;;;;;;5139913;27;20027;-66
2023/06/30 04:02:45;;;;;;;14.03;10.03;;;13.00;99.90;;;;;;5159636;27;20031;-66
2023/06/30 04:05:11;;;;;;;11.20;9.23;;;13.00;99.90;;;;;;5159701;27;20063;-66
2023/06/30 04:07:37;;;;;;;10.68;9.60;;;13.00;99.90;;;;;;5159586;27;20083;-66
2023/06/30 04:10:03;;;;;;;11.85;10.57;;;13.00;99.90;;;;;;5159298;27;20033;-66
2023/06/30 04:12:29;;;;;;;12.90;10.70;;;13.10;99.90;;;;;;5159474;27;20052;-66
2023/06/30 04:14:55;;;;;;;18.77;11.25;;;13.20;99.90;;;;;;5159479;27;20357;-66
2023/06/30 04:17:21;;;;;;;18.00;10.40;;;13.30;99.90;;;;;;5147003;27;20043;-66
2023/06/30 04:19:47;;;;;;;14.52;10.25;;;13.30;99.90;;;;;;5138636;27;20023;-66
2023/06/30 04:22:12;;;;;;;16.33;10.25;;;13.30;99.90;;;;;;5138436;27;20104;-66
2023/06/30 04:24:38;;;;;;;13.60;10.98;;;13.30;99.90;;;;;;5138511;27;20171;-66
2023/06/30 04:27:04;;;;;;;22.50;12.07;;;13.40;99.90;;;;;;5138414;27;20023;-66
2023/06/30 04:29:30;;;;;;;14.38;12.02;;;13.50;99.90;;;;;;5138311;27;20023;-66
2023/06/30 04:31:56;;;;;;;18.30;12.02;;;13.50;99.90;;;;;;5138493;27;20111;-66
2023/06/30 04:34:22;;;;;;;16.02;11.90;;;13.60;99.90;;;;;;5138261;27;20029;-66
2023/06/30 04:36:49;;;;;;;15.98;12.10;;;13.80;99.90;;;;;;5138352;27;20053;-66
2023/06/30 04:39:15;;;;;;;18.15;11.52;;;13.80;99.90;;;;;;5138076;27;20080;-66
2023/06/30 04:41:41;;;;;;;22.60;13.00;;;13.90;99.90;;;;;;5138184;27;20023;-66
2023/06/30 04:44:07;;;;;;;20.65;12.82;;;14.10;99.90;;;;;;5138075;27;20426;-66
2023/06/30 04:46:33;;;;;;;20.80;11.55;;;14.10;99.90;;;;;;5119355;27;20104;-66
2023/06/30 04:49:00;;;;;;;20.55;11.95;;;14.20;99.90;;;;;;5117414;28;20032;-66
2023/06/30 04:51:26;;;;;;;20.95;11.68;;;14.30;99.90;;;;;;5117004;28;20035;-66
2023/06/30 04:53:53;;;;;;;19.27;13.43;;;14.30;99.90;;;;;;5117269;28;20103;-66
2023/06/30 04:56:19;;;;;;;18.70;12.00;;;14.50;99.90;;;;;;5117332;28;20032;-67
2023/06/30 04:58:45;;;;;;;17.20;12.68;;;14.60;99.90;;;;;;5117203;28;20073;-66
2023/06/30 05:01:11;;;;;;;17.52;12.05;;;14.60;99.90;;;;;;5117295;28;20484;-66
2023/06/30 05:03:37;;;;;;;24.33;12.95;;;14.70;99.90;;;;;;5117173;28;20042;-66
2023/06/30 05:06:03;;;;;;;24.45;12.70;;;14.80;99.90;;;;;;5117161;28;20030;-66
2023/06/30 05:08:29;;;;;;;16.55;12.23;;;14.90;99.90;;;;;;5117025;28;20537;-67
2023/06/30 05:10:55;;;;;;;17.42;11.80;;;15.00;99.90;;;;;;5116454;28;20028;-66
2023/06/30 05:13:20;;;;;;;26.50;13.43;;;15.10;99.90;;;;;;5117437;28;20417;-66
2023/06/30 05:15:46;;;;;;;20.10;13.13;;;15.30;99.90;;;;;;5117763;28;20034;-66
2023/06/30 05:18:12;;;;;;;16.67;12.90;;;15.40;99.90;;;;;;5136360;27;20042;-66
2023/06/30 05:20:39;;;;;;;23.38;14.30;;;15.40;99.90;;;;;;5118969;27;20173;-67
2023/06/30 05:23:05;;;;;;;20.42;14.38;;;15.60;99.90;;;;;;5137179;27;20035;-66
2023/06/30 05:25:30;;;;;;;19.17;13.57;;;15.70;99.90;;;;;;5137261;27;20031;-67
2023/06/30 05:27:56;;;;;;;19.85;13.38;;;15.80;99.90;;;;;;5134863;27;20092;-67
2023/06/30 05:30:22;;;;;;;24.17;14.70;;;15.90;99.90;;;;;;5136614;27;20531;-67
2023/06/30 05:32:48;;;;;;;23.38;13.93;;;16.00;99.90;;;;;;5137181;27;20617;-67
2023/06/30 05:35:14;;;;;;;26.67;15.23;;;16.10;99.90;;;;;;5137003;27;20077;-67
2023/06/30 05:37:40;;;;;;;22.67;14.98;;;16.10;99.90;;;;;;5137143;27;20019;-67
2023/06/30 05:40:06;;;;;;;20.33;14.48;;;16.30;99.90;;;;;;5136940;27;20058;-67
2023/06/30 05:42:32;;;;;;;21.63;14.88;;;16.40;99.90;;;;;;5136525;27;20039;-67
2023/06/30 05:44:58;;;;;;;20.75;15.45;;;16.50;99.90;;;;;;5141867;27;20054;-67
2023/06/30 05:47:23;;;;;;;24.35;15.50;;;16.60;99.90;;;;;;5157474;27;20022;-67
2023/06/30 05:49:49;;;;;;;27.02;16.80;;;16.60;99.90;;;;;;5157124;27;20035;-67
2023/06/30 05:52:15;;;;;;;22.15;15.77;;;16.60;99.90;;;;;;5157490;27;20025;-67
2023/06/30 05:54:41;;;;;;;16.73;13.52;;;16.80;99.90;;;;;;5157599;27;20019;-67
2023/06/30 05:57:07;;;;;;;16.60;13.20;;;16.90;99.90;;;;;;5157055;27;20030;-67
2023/06/30 05:59:33;;;;;;;18.77;14.65;;;16.90;99.90;;;;;;5141553;27;20023;-67
2023/06/30 06:01:59;;;;;;;18.45;13.38;;;17.10;99.90;;;;;;5136367;27;20030;-67
2023/06/30 06:04:25;;;;;;;23.25;14.30;;;17.30;99.90;;;;;;5135996;27;20389;-67
2023/06/30 06:06:50;;;;;;;23.05;13.68;;;17.40;99.90;;;;;;5136458;27;20042;-67
2023/06/30 06:09:18;;;;;;;23.38;14.82;;;17.50;99.90;;;;;;5136372;27;20083;-67
2023/06/30 06:11:44;;;;;;;18.17;14.15;;;17.60;99.90;;;;;;5135951;27;20051;-67
2023/06/30 06:14:10;;;;;;;20.45;14.52;;;17.80;99.90;;;;;;5136288;27;20034;-67
2023/06/30 06:16:36;;;;;;;19.77;13.98;;;18.00;99.90;;;;;;5135879;27;20049;-67
2023/06/30 06:19:02;;;;;;;19.80;13.38;;;18.10;99.90;;;;;;5136178;27;20424;-67
2023/06/30 06:21:28;;;;;;;20.67;12.77;;;18.20;99.90;;;;;;5135475;27;20039;-67
2023/06/30 06:24:00;;;;;;;17.05;13.45;;;18.30;99.90;;;;;;5136201;27;20122;-67
2023/06/30 06:26:26;;;;;;;15.93;13.43;;;18.40;99.90;;;;;;5135963;27;20038;-67
2023/06/30 06:28:52;;;;;;;19.15;13.40;;;18.60;99.90;;;;;;5136103;27;20039;-67
2023/06/30 06:31:18;;;;;;;22.13;14.00;;;18.70;99.90;;;;;;5135769;27;20031;-67
2023/06/30 06:33:44;;;;;;;18.95;13.88;;;18.80;99.90;;;;;;5135752;27;20380;-67
2023/06/30 06:36:10;;;;;;;16.55;13.25;;;19.00;99.90;;;;;;5135494;27;20030;-67
2023/06/30 06:38:38;;;;;;;17.55;14.00;;;19.10;99.90;;;;;;5135964;27;20019;-67
2023/06/30 06:41:04;;;;;;;17.17;12.65;;;19.30;99.90;;;;;;5134696;27;20479;-66
2023/06/30 06:43:29;;;;;;;14.50;13.00;;;19.40;99.90;;;;;;5124401;27;20031;-66
2023/06/30 06:45:56;;;;;;;18.33;12.90;;;19.50;99.90;;;;;;5141650;27;20027;-67
2023/06/30 06:48:25;;;;;;;16.95;12.63;;;19.70;99.90;;;;;;5156339;27;20026;-67
2023/06/30 06:50:55;;;;;;;18.17;12.95;;;19.80;99.90;;;;;;5156360;27;20018;-67
2023/06/30 06:53:33;;;;;;;13.13;11.02;;;20.10;99.90;;;;;;5156295;27;20027;-66
2023/06/30 06:56:00;;;;;;;15.65;10.82;;;20.30;99.90;;;;;;5156564;27;20484;-66
2023/06/30 06:58:29;;;;;;;14.80;11.65;;;20.50;99.90;;;;;;5144190;27;20039;-66
2023/06/30 07:00:55;;;;;;;13.90;11.63;;;20.70;99.90;;;;;;5135497;27;20031;-66
2023/06/30 07:03:22;;;;;;;15.18;11.48;;;21.00;99.90;;;;;;5136270;27;20059;-66
2023/06/30 07:05:48;;;;;;;17.88;11.73;;;21.30;99.90;;;;;;5136251;27;20054;-66
2023/06/30 07:08:16;;;;;;;22.33;12.27;;;21.60;99.90;;;;;;5136096;27;20456;-66
2023/06/30 07:10:44;;;;;;;15.68;10.63;;;21.80;99.90;;;;;;5136139;27;20066;-66
2023/06/30 07:13:10;;;;;;;16.35;11.75;;;21.80;99.20;;;;;;5136102;28;20062;-66
2023/06/30 07:15:36;;;;;;;16.40;10.95;;;22.20;99.40;;;;;;5136328;28;20134;-66
2023/06/30 07:18:02;;;;;;;14.27;10.75;;;22.70;99.90;;;;;;5136191;28;20127;-66
2023/06/30 07:20:28;;;;;;;13.63;9.85;;;23.10;98.20;;;;;;5136049;28;20042;-66
2023/06/30 07:22:56;;;;;;;13.20;9.52;;;23.50;97.70;;;;;;5135874;28;20027;-66
2023/06/30 07:25:25;;;;;;;14.95;9.10;;;23.80;95.60;;;;;;5135818;28;20023;-66
2023/06/30 07:27:53;;;;;;;18.27;9.13;;;24.20;94.40;;;;;;5135671;28;20495;-66
2023/06/30 07:30:29;;;;;;;15.38;8.85;;;24.50;92.50;;;;;;5135607;28;20087;-66
2023/06/30 07:32:55;;;;;;;16.77;8.90;;;24.80;92.90;;;;;;5136400;27;20493;-66
2023/06/30 07:35:22;;;;;;;52.90;9.52;;;25.20;91.30;;;;;;5139894;27;20026;-66
2023/06/30 07:37:49;;;;;;;8.68;7.78;;;25.60;86.90;;;;;;5139962;27;20020;-66
2023/06/30 07:40:16;;;;;;;14.43;7.60;;;25.60;84.60;;;;;;5140380;27;20102;-66
2023/06/30 07:42:43;;;;;;;14.32;7.90;;;25.80;84.10;;;;;;5139954;27;20472;-66
2023/06/30 07:45:16;;;;;;;12.73;7.45;;;26.10;84.00;;;;;;5146560;27;20031;-66
2023/06/30 07:47:43;;;;;;;10.73;7.53;;;26.40;82.50;;;;;;5160584;27;20081;-67
2023/06/30 07:50:12;;;;;;;11.95;7.20;;;26.60;79.00;;;;;;5159592;27;20061;-66
2023/06/30 07:52:48;;;;;;;15.13;6.22;;;26.80;77.20;;;;;;5159267;27;20027;-66
2023/06/30 07:55:16;;;;;;;10.20;6.63;;;27.10;72.40;;;;;;5159829;27;20019;-66
2023/06/30 07:57:43;;;;;;;10.80;6.28;;;27.50;74.50;;;;;;5159375;27;20045;-67
2023/06/30 08:00:15;;;;;;;8.68;5.75;;;27.10;72.10;;;;;;5159825;27;20031;-66
2023/06/30 08:02:42;;;;;;;7.40;6.22;;;27.60;70.00;;;;;;5159740;27;20027;-66
2023/06/30 08:05:08;;;;;;;7.60;5.63;;;27.80;67.90;;;;;;5159273;27;20069;-66
2023/06/30 08:07:34;;;;;;;16.70;6.65;;;28.20;69.40;;;;;;5159475;27;20119;-66
2023/06/30 08:10:00;;;;;;;7.65;5.07;;;28.10;60.60;;;;;;5159360;27;20438;-66
2023/06/30 08:12:26;;;;;;;8.93;5.65;;;28.40;62.80;;;;;;5159113;27;20475;-66
2023/06/30 08:14:52;;;;;;;7.57;4.75;;;28.80;61.10;;;;;;5159875;27;20019;-66
2023/06/30 08:17:19;;;;;;;14.95;7.70;;;29.00;59.20;;;;;;5148201;27;20067;-67
2023/06/30 08:19:44;;;;;;;8.63;5.47;;;29.00;58.50;;;;;;5139183;27;20102;-67
2023/06/30 08:22:13;;;;;;;11.48;6.13;;;29.30;57.50;;;;;;5139380;27;20059;-67
2023/06/30 08:24:43;;;;;;;7.68;5.88;;;29.40;55.30;;;;;;5139109;27;20091;-67
2023/06/30 08:27:09;;;;;;;7.47;5.43;;;29.40;58.50;;;;;;5138977;27;20496;-67
2023/06/30 08:29:35;;;;;;;9.50;5.70;;;29.80;56.00;;;;;;5118355;27;20700;-67
2023/06/30 08:32:02;;;;;;;8.85;5.10;;;29.80;55.80;;;;;;5115282;28;20019;-67
2023/06/30 08:34:28;;;;;;;7.63;5.30;;;29.90;55.00;;;;;;5117814;28;20019;-68
2023/06/30 08:36:57;;;;;;;7.97;5.70;;;30.10;54.10;;;;;;5117950;28;20555;-68
2023/06/30 08:39:28;;;;;;;8.82;5.63;;;30.20;59.90;;;;;;5115586;28;20106;-67
2023/06/30 08:41:55;;;;;;;5.35;4.75;;;30.40;51.80;;;;;;5117569;28;20028;-67
2023/06/30 08:44:25;;;;;;;9.98;6.10;;;30.50;51.40;;;;;;5114822;28;20085;-68
2023/06/30 08:46:53;;;;;;;10.07;5.70;;;30.10;50.90;;;;;;5115467;28;20031;-68
2023/06/30 08:49:23;;;;;;;8.95;5.15;;;30.50;52.30;;;;;;5116847;28;20031;-67
2023/06/30 08:51:56;;;;;;;5.78;4.78;;;30.90;53.10;;;;;;5116691;28;20027;-68
2023/06/30 08:54:23;;;;;;;10.00;5.95;;;30.40;51.30;;;;;;5116770;28;20066;-68
2023/06/30 08:56:49;;;;;;;6.38;5.13;;;30.50;52.60;;;;;;5113793;28;20548;-69
2023/06/30 08:59:16;;;;;;;8.07;5.30;;;30.50;51.20;;;;;;5117254;28;20084;-67
2023/06/30 09:01:45;;;;;;;8.07;5.20;;;29.70;48.50;;;;;;5116651;28;20032;-68
2023/06/30 09:04:12;;;;;;;20.57;6.53;;;30.00;52.30;;;;;;5116767;28;20057;-68
2023/06/30 09:06:47;;;;;;;13.38;5.20;;;30.50;49.80;;;;;;5116990;28;20043;-68
2023/06/30 09:09:23;;;;;;;8.13;5.47;;;30.80;48.40;;;;;;5116882;28;20028;-68
2023/06/30 09:11:50;;;;;;;6.25;4.60;;;31.00;50.70;;;;;;5116764;28;20201;-68
2023/06/30 09:14:20;;;;;;;8.43;4.90;;;31.40;51.80;;;;;;5117053;28;20079;-67
2023/06/30 09:16:46;;;;;;;8.05;4.90;;;31.80;47.70;;;;;;5115828;28;20035;-67
2023/06/30 09:19:15;;;;;;;8.65;4.65;;;31.80;49.00;;;;;;5116450;28;20016;-68
2023/06/30 09:21:41;;;;;;;7.35;4.93;;;31.80;47.60;;;;;;5116270;28;20032;-68
2023/06/30 09:24:07;;;;;;;6.07;4.70;;;32.10;46.30;;;;;;5116527;28;20361;-67
2023/06/30 09:26:34;;;;;;;5.03;4.13;;;32.20;48.80;;;;;;5116703;28;20059;-68
2023/06/30 09:29:02;;;;;;;7.00;4.90;;;31.80;43.60;;;;;;5116645;28;20035;-67
2023/06/30 09:31:32;;;;;;;5.18;4.05;;;32.00;43.80;;;;;;5116456;28;20373;-68
2023/06/30 09:34:08;;;;;;;6.80;4.57;;;31.90;48.20;;;;;;5115743;28;20361;-68
2023/06/30 09:36:34;;;;;;;8.30;4.40;;;32.60;45.60;;;;;;5116258;28;20035;-67
2023/06/30 09:39:00;;;;;;;10.43;4.93;;;32.80;43.60;;;;;;5116692;28;20028;-68
2023/06/30 09:41:29;;;;;;;9.90;4.40;;;32.80;45.90;;;;;;5117007;28;20023;-67
2023/06/30 09:43:58;;;;;;;12.98;5.25;;;32.50;42.80;;;;;;5117038;28;20600;-67
2023/06/30 09:46:24;;;;;;;7.53;4.60;;;32.90;45.90;;;;;;5133772;27;20031;-67
2023/06/30 09:48:53;;;;;;;6.05;4.00;;;33.50;43.60;;;;;;5137473;27;20041;-67
2023/06/30 09:51:23;;;;;;;4.32;3.47;;;33.50;41.50;;;;;;5137243;27;20631;-67
2023/06/30 09:53:54;;;;;;;3.50;3.20;;;33.40;38.00;;;;;;5137355;27;20034;-67
2023/06/30 09:56:21;;;;;;;4.20;3.30;;;33.10;38.00;;;;;;5136628;27;20031;-68
2023/06/30 09:58:48;;;;;;;8.10;3.38;;;32.90;38.90;;;;;;5137109;27;20533;-68
2023/06/30 10:01:23;;;;;;;5.32;3.28;;;33.50;38.40;;;;;;5137235;27;20748;-67
2023/06/30 10:03:51;;;;;;;6.03;3.65;;;32.90;34.80;;;;;;5137308;27;20031;-68
2023/06/30 10:06:19;;;;;;;18.20;4.43;;;33.50;35.90;;;;;;5137049;27;20419;-67
2023/06/30 10:08:47;;;;;;;7.20;3.63;;;34.00;37.50;;;;;;5137036;27;20035;-67
2023/06/30 10:11:13;;;;;;;3.85;3.15;;;34.50;40.70;;;;;;5137031;27;20027;-67
2023/06/30 10:13:43;;;;;;;4.78;4.15;;;34.40;36.80;;;;;;5137030;27;20430;-68
2023/06/30 10:16:09;;;;;;;;;;;34.00;38.00;;;;;;5137377;27;20476;-68
2023/06/30 10:18:41;;;;;;;4.05;3.33;;;34.10;41.60;;;;;;5137068;27;19921;-67
2023/06/30 10:21:07;;;;;;;6.55;4.15;;;33.60;36.80;;;;;;5136737;27;20444;-68
2023/06/30 10:23:35;;;;;;;9.02;4.25;;;33.70;38.60;;;;;;5136888;27;20035;-68
2023/06/30 10:26:04;;;;;;;4.13;3.10;;;33.60;37.20;;;;;;5136747;27;20027;-68
2023/06/30 10:28:33;;;;;;;5.45;3.42;;;32.00;35.40;;;;;;5136564;27;20031;-67
2023/06/30 10:31:00;;;;;;;4.68;3.63;;;31.00;39.30;;;;;;5136403;27;20128;-67
2023/06/30 10:33:25;;;;;;;3.70;3.15;;;31.10;38.10;;;;;;5136588;27;20027;-67
2023/06/30 10:35:52;;;;;;;4.00;3.15;;;31.40;44.40;;;;;;5136424;27;20030;-67
2023/06/30 10:38:18;;;;;;;6.03;4.45;;;31.60;39.00;;;;;;5136398;27;20023;-67
2023/06/30 10:40:45;;;;;;;6.38;4.13;;;32.10;39.00;;;;;;5136601;27;20031;-67
2023/06/30 10:43:13;;;;;;;14.80;5.05;;;31.90;42.40;;;;;;5136014;27;20029;-67
2023/06/30 10:46:07;;;;;;;25.58;7.25;;;32.80;39.40;;;;;;5124624;27;20119;-68
2023/06/30 10:48:34;;;;;;;5.40;4.05;;;33.20;41.30;;;;;;5115013;28;20027;-67
2023/06/30 10:51:04;;;;;;;6.45;4.63;;;33.90;39.20;;;;;;5115063;28;20033;-67
2023/06/30 10:53:30;;;;;;;6.00;3.85;;;34.50;37.70;;;;;;5115059;28;20023;-67
2023/06/30 10:55:59;;;;;;;5.38;3.33;;;34.70;36.60;;;;;;5114848;28;20089;-67
2023/06/30 10:58:30;;;;;;;4.75;3.50;;;34.60;35.70;;;;;;5115366;28;20103;-67
2023/06/30 11:01:06;;;;;;;5.10;3.47;;;34.70;39.40;;;;;;5115054;28;20508;-68
2023/06/30 11:03:57;;;;;;;4.05;3.20;;;34.50;35.70;;;;;;5115739;28;20055;-68
2023/06/30 11:06:25;;;;;;;5.07;3.60;;;34.60;34.20;;;;;;5115825;28;20081;-67
2023/06/30 11:09:09;;;;;;;5.78;2.90;;;34.50;35.00;;;;;;5115046;28;20058;-67
2023/06/30 11:11:55;;;;;;;5.68;3.58;;;34.80;31.90;;;;;;5114582;28;20044;-67
2023/06/30 11:14:34;;;;;;;4.60;3.47;;;34.60;33.00;;;;;;5115180;28;20028;-67
2023/06/30 11:17:04;;;;;;;5.55;3.45;;;33.80;34.30;;;;;;5114277;28;20043;-67
2023/06/30 11:19:30;;;;;;;6.22;3.30;;;34.50;37.30;;;;;;5114902;28;20020;-68
2023/06/30 11:22:22;;;;;;;6.57;3.58;;;34.20;35.90;;;;;;5114704;28;20034;-67
2023/06/30 11:24:48;;;;;;;5.75;3.30;;;34.40;34.20;;;;;;5114520;28;20023;-67
2023/06/30 11:27:15;;;;;;;5.47;3.60;;;34.70;36.40;;;;;;5114644;28;20046;-67
2023/06/30 11:29:41;;;;;;;5.60;3.15;;;34.50;38.80;;;;;;5114369;28;20054;-68
2023/06/30 11:32:08;;;;;;;15.77;5.30;;;34.40;36.10;;;;;;5114258;28;20028;-67
2023/06/30 11:34:35;;;;;;;8.38;3.85;;;33.80;34.60;;;;;;5114565;28;20453;-67
2023/06/30 11:37:07;;;;;;;5.45;3.63;;;34.20;36.50;;;;;;5114609;28;20049;-67
2023/06/30 11:39:35;;;;;;;8.57;3.78;;;34.60;36.00;;;;;;5114232;28;20023;-67
2023/06/30 11:42:01;;;;;;;6.05;3.08;;;33.80;33.70;;;;;;5111582;28;20031;-67
2023/06/30 11:44:27;;;;;;;10.43;3.63;;;34.20;35.20;;;;;;5114545;28;20054;-67
2023/06/30 11:46:55;;;;;;;9.25;3.90;;;34.70;33.40;;;;;;5114211;28;20027;-67
2023/06/30 11:49:21;;;;;;;9.65;3.58;;;34.60;32.80;;;;;;5114474;28;20034;-67
2023/06/30 11:51:47;;;;;;;7.38;3.80;;;34.70;34.50;;;;;;5114308;28;20080;-67
2023/06/30 11:54:14;;;;;;;7.03;3.50;;;34.20;32.10;;;;;;5114296;28;20077;-67
2023/06/30 11:56:40;;;;;;;6.75;3.17;;;34.50;32.60;;;;;;5114503;28;20034;-67
2023/06/30 11:59:06;;;;;;;4.65;3.65;;;34.30;32.30;;;;;;5114143;28;20484;-68
2023/06/30 12:01:32;;;;;;;14.18;5.95;;;34.70;37.50;;;;;;5114051;28;20024;-67
2023/06/30 12:04:08;;;;;;;11.40;4.65;;;34.80;32.70;;;;;;5114311;28;20433;-67
2023/06/30 12:06:35;;;;;;;5.80;3.63;;;35.20;33.60;;;;;;5114038;28;20039;-67
2023/06/30 12:09:02;;;;;;;8.68;4.97;;;35.10;34.50;;;;;;5113974;28;20111;-67
2023/06/30 12:11:32;;;;;;;4.53;3.92;;;32.50;34.90;;;;;;5114062;28;20035;-68
2023/06/30 12:13:58;;;;;;;8.10;4.32;;;32.00;39.30;;;;;;5114136;28;20028;-67
2023/06/30 12:16:37;;;;;;;4.80;3.63;;;32.40;39.80;;;;;;5114004;28;20521;-67
2023/06/30 12:19:06;;;;;;;6.95;4.90;;;32.80;40.00;;;;;;5114043;28;20024;-67
2023/06/30 12:21:33;;;;;;;5.43;3.50;;;33.40;36.90;;;;;;5117196;28;20103;-67
2023/06/30 12:24:00;;;;;;;6.93;4.03;;;33.80;35.10;;;;;;5117861;28;20031;-67
2023/06/30 12:26:26;;;;;;;9.32;3.75;;;34.00;37.70;;;;;;5117905;28;20020;-67
2023/06/30 12:28:52;;;;;;;16.02;4.47;;;34.00;33.60;;;;;;5117714;28;20023;-67
2023/06/30 12:31:24;;;;;;;10.85;5.15;;;34.30;33.10;;;;;;5117568;28;20054;-67
2023/06/30 12:33:54;;;;;;;6.15;3.53;;;34.50;33.00;;;;;;5099675;28;20039;-67
2023/06/30 12:36:27;;;;;;;7.68;3.80;;;34.50;34.10;;;;;;5117576;28;20043;-67
2023/06/30 12:38:53;;;;;;;6.07;3.47;;;34.30;39.50;;;;;;5117626;28;20024;-67
2023/06/30 12:41:19;;;;;;;6.50;4.18;;;34.60;33.60;;;;;;5117691;28;20059;-67